createdAt,value
2023-04-11T08:14:47.310Z,18.35
2023-04-11T08:17:50.059Z,19.17
2023-04-11T08:20:52.855Z,17.67
2023-04-11T08:23:55.447Z,14.87
2023-04-11T08:26:57.835Z,15.27
2023-04-11T08:30:00.316Z,14.48
2023-04-11T08:33:02.432Z,15.27
2023-04-11T08:36:09.680Z,16.02
2023-04-11T08:39:11.932Z,18.48
2023-04-11T08:42:23.227Z,22.05
2023-04-11T08:45:25.573Z,20.40
2023-04-11T08:48:28.331Z,19.70
2023-04-11T08:51:31.469Z,21.17
2023-04-11T08:54:33.858Z,20.35
2023-04-11T08:57:38.158Z,18.35
2023-04-11T09:00:40.648Z,24.50
2023-04-11T09:04:02.483Z,18.00
2023-04-11T09:07:05.704Z,21.52
2023-04-11T09:10:20.902Z,21.25
2023-04-11T09:13:24.347Z,21.92
2023-04-11T09:16:27.034Z,19.30
2023-04-11T09:19:31.791Z,19.20
2023-04-11T09:22:37.044Z,21.23
2023-04-11T09:25:45.572Z,18.90
2023-04-11T09:28:54.897Z,21.70
2023-04-11T09:31:57.406Z,19.90
2023-04-11T09:35:18.528Z,18.23
2023-04-11T09:38:28.038Z,17.42
2023-04-11T09:41:32.312Z,18.45
2023-04-11T09:44:37.437Z,19.50
2023-04-11T09:47:39.643Z,18.62
2023-04-11T09:50:43.076Z,20.10
2023-04-11T09:53:45.570Z,19.05
2023-04-11T09:56:48.995Z,19.60
2023-04-11T09:59:52.853Z,17.25
2023-04-11T10:02:56.335Z,21.73
2023-04-11T10:05:58.898Z,16.30
2023-04-11T10:09:12.253Z,18.83
2023-04-11T10:12:31.554Z,21.12
2023-04-11T10:15:33.694Z,20.20
2023-04-11T10:18:37.072Z,17.80
2023-04-11T10:21:40.895Z,17.15
2023-04-11T10:25:16.752Z,21.40
2023-04-11T10:32:05.756Z,18.98
2023-04-11T10:35:16.853Z,18.07
2023-04-11T10:38:48.250Z,20.80
2023-04-11T10:41:50.488Z,24.12
2023-04-11T10:45:14.508Z,25.23
2023-04-11T10:48:16.647Z,21.55
2023-04-11T10:51:30.123Z,24.63
2023-04-11T10:54:32.256Z,23.62
2023-04-11T10:58:03.518Z,24.95
2023-04-11T11:01:21.288Z,21.87
2023-04-11T11:04:36.594Z,23.92
2023-04-11T11:07:39.012Z,21.62
2023-04-11T11:10:43.503Z,23.10
2023-04-11T11:13:53.270Z,20.77
2023-04-11T11:16:55.896Z,20.12
2023-04-11T11:19:58.231Z,23.50
2023-04-11T11:23:02.707Z,25.10
2023-04-11T11:26:05.016Z,20.37
2023-04-11T11:29:08.334Z,19.15
2023-04-11T11:32:21.277Z,20.30
2023-04-11T11:35:24.727Z,19.23
2023-04-11T11:38:28.739Z,18.65
2023-04-11T11:41:33.518Z,18.15
2023-04-11T11:44:35.767Z,17.92
2023-04-11T11:47:56.633Z,16.35
2023-04-11T11:50:58.926Z,15.88
2023-04-11T11:54:11.248Z,17.67
2023-04-11T11:57:22.648Z,18.75
2023-04-11T12:00:27.081Z,15.57
2023-04-11T12:03:29.671Z,16.02
2023-04-11T12:06:32.386Z,15.52
2023-04-11T12:09:34.771Z,14.30
2023-04-11T12:12:41.909Z,17.00
2023-04-11T12:15:46.540Z,17.50
2023-04-11T12:18:48.656Z,18.60
2023-04-11T12:21:51.522Z,17.60
2023-04-11T12:25:06.385Z,17.60
2023-04-11T12:28:09.620Z,14.77
2023-04-11T12:31:12.474Z,15.95
2023-04-11T12:34:14.971Z,12.80
2023-04-11T12:37:17.138Z,13.25
2023-04-11T12:40:19.763Z,13.10
2023-04-11T12:43:21.935Z,15.88
2023-04-11T12:46:24.469Z,14.68
2023-04-11T12:49:28.189Z,15.88
2023-04-11T12:52:30.945Z,14.90
2023-04-11T12:55:34.883Z,18.55
2023-04-11T12:58:37.339Z,17.35
2023-04-11T13:01:39.517Z,17.02
2023-04-11T13:04:42.092Z,17.35
2023-04-11T13:07:45.421Z,14.32
2023-04-11T13:10:48.155Z,17.92
2023-04-11T13:13:51.596Z,17.45
2023-04-11T13:16:54.142Z,12.90
2023-04-11T13:19:56.264Z,11.75
2023-04-11T13:22:58.673Z,11.12
2023-04-11T13:26:01.079Z,11.70
2023-04-11T13:29:03.578Z,13.93
2023-04-11T13:32:06.606Z,13.80
2023-04-11T13:35:09.343Z,11.73
2023-04-11T13:38:12.537Z,11.48
2023-04-11T13:41:15.078Z,13.13
2023-04-11T13:44:17.695Z,13.07
2023-04-11T13:47:20.211Z,10.48
2023-04-11T13:50:22.368Z,9.95
2023-04-11T13:53:24.743Z,8.98
2023-04-11T13:56:27.193Z,9.85
2023-04-11T13:59:29.540Z,11.90
2023-04-11T14:02:31.737Z,10.23
2023-04-11T14:05:35.560Z,9.85
2023-04-11T14:08:37.723Z,10.40
2023-04-11T14:11:40.694Z,10.80
2023-04-11T14:14:42.775Z,11.85
2023-04-11T14:17:46.840Z,11.32
